Time;durP1;ratioP1;P1;durP2;ratioP2;P2;SDS_P1;SDS_P2;PMS_P1;PMS_P2;Temp;Humidity;BMP_temperature;BMP_pressure;BME280_temperature;BME280_humidity;BME280_pressure;Samples;Min_cycle;Max_cycle;Signal;HPM_P1;HPM_P2
2022/09/21 00:52:06;;;;;;;2.83;0.50;;;7.30;99.90;;;;;;5082118;28;20043;-84
2022/09/21 00:54:45;;;;;;;0.60;0.35;;;7.20;99.90;;;;;;5082769;28;20093;-84
2022/09/21 00:57:11;;;;;;;3.63;1.20;;;7.20;99.90;;;;;;5065004;28;20042;-84
2022/09/21 00:59:38;;;;;;;6.32;1.38;;;7.10;99.90;;;;;;5081231;28;20448;-84
2022/09/21 01:02:04;;;;;;;3.20;0.95;;;7.10;99.90;;;;;;5080800;28;20089;-84
2022/09/21 01:04:31;;;;;;;2.40;0.90;;;7.00;99.90;;;;;;5083167;28;20033;-84
2022/09/21 01:07:02;;;;;;;3.65;1.17;;;6.90;99.90;;;;;;5078772;28;20044;-84
2022/09/21 01:09:28;;;;;;;5.70;1.42;;;7.00;99.90;;;;;;5065532;28;20044;-84
2022/09/21 01:12:17;;;;;;;4.60;0.82;;;6.90;99.90;;;;;;5063167;28;20047;-84
2022/09/21 01:15:04;;;;;;;2.83;1.05;;;7.00;99.90;;;;;;5060940;28;20127;-84
2022/09/21 01:17:41;;;;;;;3.30;0.80;;;7.00;99.90;;;;;;5063431;28;20116;-84
2022/09/21 01:20:24;;;;;;;1.75;0.95;;;7.00;99.90;;;;;;5081623;28;20090;-84
2022/09/21 01:23:22;;;;;;;4.13;0.70;;;7.00;99.90;;;;;;5075317;28;20127;-84
2022/09/21 01:26:20;;;;;;;7.00;0.60;;;6.90;99.90;;;;;;5077552;28;20914;-84
2022/09/21 01:29:05;;;;;;;1.58;0.80;;;6.90;99.90;;;;;;5076281;28;20553;-84
2022/09/21 01:31:38;;;;;;;1.13;0.50;;;6.90;99.90;;;;;;5063944;28;20134;-84
2022/09/21 01:34:16;;;;;;;3.40;0.70;;;6.90;99.90;;;;;;5079306;28;20043;-83
2022/09/21 01:36:42;;;;;;;1.10;0.57;;;6.90;99.90;;;;;;5080247;28;20037;-84
2022/09/21 01:39:12;;;;;;;1.88;0.40;;;6.90;99.90;;;;;;5079085;28;20040;-85
2022/09/21 01:41:40;;;;;;;0.70;0.15;;;7.30;99.90;;;;;;5079149;28;20125;-84
2022/09/21 01:44:13;;;;;;;3.17;0.38;;;6.80;99.90;;;;;;5079039;28;20028;-84
2022/09/21 01:46:39;;;;;;;3.60;0.47;;;6.70;99.90;;;;;;5076207;28;20067;-84
2022/09/21 01:49:13;;;;;;;2.58;0.40;;;6.70;99.90;;;;;;5079394;28;20079;-84
2022/09/21 01:51:45;;;;;;;4.45;0.40;;;6.70;99.90;;;;;;5064810;28;20086;-85
2022/09/21 01:54:20;;;;;;;1.17;0.28;;;6.80;99.90;;;;;;5079831;28;20123;-84
2022/09/21 01:57:06;;;;;;;1.95;0.38;;;6.90;99.90;;;;;;5063171;28;20063;-85
2022/09/21 01:59:42;;;;;;;1.10;0.60;;;6.60;99.90;;;;;;5061221;28;20418;-85
2022/09/21 02:02:14;;;;;;;;;;;6.60;99.90;;;;;;5082109;28;20051;-84
2022/09/21 02:04:40;;;;;;;5.03;0.40;;;6.60;99.90;;;;;;5060153;28;19920;-84
2022/09/21 02:07:10;;;;;;;0.40;0.30;;;6.50;99.90;;;;;;5060058;28;20043;-84
2022/09/21 02:09:36;;;;;;;2.65;0.45;;;6.50;99.90;;;;;;5067135;28;20485;-84
2022/09/21 02:12:02;;;;;;;2.38;0.73;;;6.40;99.90;;;;;;5068156;28;20165;-84
2022/09/21 02:14:31;;;;;;;4.00;0.80;;;6.30;99.90;;;;;;5055717;28;20119;-84
2022/09/21 02:17:15;;;;;;;1.40;0.70;;;6.30;99.90;;;;;;5062861;28;20040;-85
2022/09/21 02:19:50;;;;;;;5.63;0.70;;;6.40;99.90;;;;;;5066806;28;20422;-84
2022/09/21 02:22:32;;;;;;;0.53;0.20;;;6.40;99.90;;;;;;5063668;28;20043;-85
2022/09/21 02:25:13;;;;;;;1.02;0.40;;;6.40;99.90;;;;;;5078175;28;20135;-85
2022/09/21 02:27:53;;;;;;;3.97;0.85;;;6.40;99.90;;;;;;5060532;28;20075;-84
2022/09/21 02:30:21;;;;;;;1.83;0.45;;;6.40;99.90;;;;;;5062849;28;20046;-85
2022/09/21 02:33:13;;;;;;;1.52;0.95;;;6.40;99.90;;;;;;5059688;28;20089;-85
2022/09/21 02:36:02;;;;;;;2.90;0.90;;;6.40;99.90;;;;;;5064893;28;20047;-85
2022/09/21 02:38:49;;;;;;;0.93;0.47;;;6.90;99.90;;;;;;5064108;28;20040;-85
2022/09/21 02:41:49;;;;;;;2.10;0.40;;;6.40;99.90;;;;;;5064006;28;20040;-84
2022/09/21 02:44:31;;;;;;;5.30;0.70;;;6.30;99.90;;;;;;5038337;28;20040;-84
2022/09/21 02:47:20;;;;;;;2.05;0.60;;;6.40;99.90;;;;;;5065626;28;20032;-84
2022/09/21 02:50:00;;;;;;;2.13;0.50;;;6.30;99.90;;;;;;5080330;28;20554;-85
2022/09/21 02:52:31;;;;;;;2.20;0.28;;;6.30;99.90;;;;;;5080956;28;20048;-84
2022/09/21 02:54:57;;;;;;;0.82;0.30;;;6.30;99.90;;;;;;5067270;28;20051;-85
2022/09/21 02:57:24;;;;;;;3.83;0.50;;;6.20;99.90;;;;;;5068065;28;20097;-84
2022/09/21 02:59:50;;;;;;;3.38;0.47;;;6.20;99.90;;;;;;5065432;28;20041;-84
2022/09/21 03:02:16;;;;;;;0.80;0.40;;;6.20;99.90;;;;;;5085638;28;20464;-84
2022/09/21 03:04:48;;;;;;;1.58;0.47;;;6.10;99.90;;;;;;5083657;28;20046;-84
2022/09/21 03:07:17;;;;;;;4.80;0.70;;;6.20;99.90;;;;;;5081374;28;20074;-84
2022/09/21 03:09:46;;;;;;;3.42;0.50;;;6.40;99.90;;;;;;5066819;28;20040;-84
2022/09/21 03:12:12;;;;;;;3.17;0.52;;;6.20;99.90;;;;;;5082948;28;20044;-85
2022/09/21 03:14:38;;;;;;;3.28;0.40;;;6.30;99.90;;;;;;5080641;28;20045;-84
2022/09/21 03:17:03;;;;;;;2.40;0.40;;;6.40;99.90;;;;;;5078491;28;20094;-84
2022/09/21 03:19:29;;;;;;;3.17;0.30;;;6.20;99.90;;;;;;5084077;28;20731;-84
2022/09/21 03:21:55;;;;;;;3.22;0.45;;;6.20;99.90;;;;;;5081416;28;20121;-84
2022/09/21 03:27:08;;;;;;;2.40;0.10;;;6.00;99.90;;;;;;5079414;28;20113;-85
2022/09/21 03:29:33;;;;;;;0.50;0.15;;;6.10;99.90;;;;;;5079312;28;20045;-85
2022/09/21 03:31:59;;;;;;;1.20;0.30;;;6.00;99.90;;;;;;5065808;28;20040;-85
2022/09/21 03:34:25;;;;;;;1.15;0.47;;;5.90;99.90;;;;;;5082122;28;20040;-85
2022/09/21 03:36:51;;;;;;;0.80;0.40;;;5.80;99.90;;;;;;5080960;28;20036;-84
2022/09/21 03:39:16;;;;;;;1.95;0.40;;;5.90;99.90;;;;;;5079693;28;20071;-84
2022/09/21 03:41:42;;;;;;;1.40;0.40;;;5.80;99.90;;;;;;5064296;28;20552;-84
2022/09/21 03:44:08;;;;;;;4.65;0.60;;;6.10;99.90;;;;;;5063434;28;20089;-84
2022/09/21 03:46:34;;;;;;;2.75;0.35;;;5.80;99.90;;;;;;5080329;28;20032;-84
2022/09/21 03:49:01;;;;;;;1.63;0.55;;;5.80;99.90;;;;;;5081056;28;20044;-84
2022/09/21 03:51:28;;;;;;;2.58;0.40;;;5.90;99.90;;;;;;5080634;28;20033;-84
2022/09/21 03:53:54;;;;;;;0.73;0.50;;;5.90;99.90;;;;;;5078587;28;20147;-84
2022/09/21 03:56:20;;;;;;;1.15;0.60;;;5.80;99.90;;;;;;5080136;28;20074;-84
2022/09/21 03:58:45;;;;;;;0.35;0.30;;;5.80;99.90;;;;;;5076468;28;20395;-82
2022/09/21 04:01:16;;;;;;;1.35;0.50;;;5.80;99.90;;;;;;5079076;28;20781;-86
2022/09/21 04:03:42;;;;;;;4.90;0.35;;;5.80;99.90;;;;;;5063697;28;20583;-86
2022/09/21 04:06:09;;;;;;;0.82;0.40;;;5.80;99.90;;;;;;5067902;28;20139;-86
2022/09/21 04:08:35;;;;;;;3.63;0.30;;;5.70;99.90;;;;;;5067148;28;20062;-86
2022/09/21 04:11:08;;;;;;;1.48;0.40;;;5.80;99.90;;;;;;5063283;28;20035;-86
2022/09/21 04:13:35;;;;;;;3.13;0.50;;;5.80;99.90;;;;;;5077033;28;20525;-86
2022/09/21 04:16:09;;;;;;;2.60;0.50;;;5.80;99.90;;;;;;5069754;28;20040;-86
2022/09/21 04:19:07;;;;;;;1.90;0.40;;;5.80;99.90;;;;;;5082215;28;20510;-86
2022/09/21 04:21:33;;;;;;;0.75;0.30;;;5.80;99.90;;;;;;5064697;28;20139;-87
2022/09/21 04:24:00;;;;;;;0.40;0.32;;;5.70;99.90;;;;;;5063934;28;20086;-86
2022/09/21 04:26:32;;;;;;;1.23;0.40;;;5.70;99.90;;;;;;5078337;28;20048;-86
2022/09/21 04:32:42;;;;;;;0.60;0.35;;;5.70;99.90;;;;;;5079756;28;20130;-87
2022/09/21 04:35:45;;;;;;;1.17;0.65;;;5.70;99.90;;;;;;5076249;28;20455;-87
2022/09/21 04:38:23;;;;;;;0.88;0.40;;;5.60;99.90;;;;;;5081313;28;20084;-86
2022/09/21 04:40:56;;;;;;;0.95;0.77;;;5.70;99.90;;;;;;5079183;28;20048;-86
2022/09/21 04:43:26;;;;;;;1.38;0.65;;;6.00;99.90;;;;;;5057928;28;20041;-87
2022/09/21 04:46:19;;;;;;;2.05;0.50;;;5.60;99.90;;;;;;5077693;28;20040;-88
2022/09/21 04:49:26;;;;;;;3.15;0.50;;;5.60;99.90;;;;;;5078101;28;20075;-86
2022/09/21 04:59:28;;;;;;;5.07;0.50;;;5.40;99.90;;;;;;5066662;28;20055;-86
2022/09/21 05:02:09;;;;;;;2.17;0.60;;;5.40;99.90;;;;;;5076765;28;20053;-86
2022/09/21 05:04:39;;;;;;;1.42;0.45;;;5.50;99.90;;;;;;5077971;28;20040;-86
2022/09/21 05:11:21;;;;;;;2.38;0.32;;;5.40;99.90;;;;;;4985115;28;20061;-85
2022/09/21 05:13:47;;;;;;;1.45;0.70;;;5.40;99.90;;;;;;4981071;28;20208;-85
2022/09/21 05:16:14;;;;;;;3.45;0.63;;;5.40;99.90;;;;;;5034960;28;20589;-85
2022/09/21 05:18:41;;;;;;;4.30;0.90;;;5.50;99.90;;;;;;5061923;28;20123;-86
2022/09/21 05:21:14;;;;;;;4.05;0.50;;;5.50;99.90;;;;;;5064889;28;20143;-85
2022/09/21 05:23:40;;;;;;;3.70;0.73;;;5.50;99.90;;;;;;5059859;28;20035;-86
2022/09/21 05:26:06;;;;;;;3.15;0.60;;;5.50;99.90;;;;;;5079198;28;20785;-86
2022/09/21 05:28:32;;;;;;;1.05;0.60;;;5.50;99.90;;;;;;5063981;28;20094;-85
2022/09/21 05:30:58;;;;;;;3.35;0.60;;;5.50;99.90;;;;;;5077724;28;20064;-85
2022/09/21 05:33:30;;;;;;;1.98;0.88;;;5.50;99.90;;;;;;5078623;28;20040;-86
2022/09/21 05:36:11;;;;;;;1.63;0.60;;;5.50;99.90;;;;;;5076443;28;20059;-85
2022/09/21 05:38:37;;;;;;;3.25;0.50;;;5.50;99.90;;;;;;5075767;28;20123;-85
2022/09/21 05:41:03;;;;;;;3.70;0.40;;;5.50;99.90;;;;;;5079307;28;20131;-85
2022/09/21 05:43:28;;;;;;;1.95;0.40;;;5.30;99.90;;;;;;5078711;28;20076;-85
2022/09/21 05:50:23;;;;;;;1.17;0.30;;;5.70;99.90;;;;;;5071917;28;20040;-86
2022/09/21 05:53:56;;;;;;;1.08;0.40;;;5.60;99.90;;;;;;5077912;28;20110;-87
2022/09/21 05:57:28;;;;;;;6.50;0.30;;;6.20;99.90;;;;;;5072890;28;20414;-87
2022/09/21 06:00:56;;;;;;;1.55;0.28;;;7.60;99.90;;;;;;5065295;28;20614;-87
2022/09/21 06:03:29;;;;;;;7.07;0.20;;;9.30;99.90;;;;;;5094509;28;20044;-84
2022/09/21 06:06:18;;;;;;;2.15;1.00;;;10.60;99.90;;;;;;5065982;28;21595;-90
2022/09/21 06:24:09;;;;;;;4.00;0.40;;;16.70;99.90;;;;;;5075878;28;20034;-89
2022/09/21 06:41:27;;;;;;;6.28;0.98;;;20.70;99.90;;;;;;5020796;28;20714;-86
2022/09/21 07:47:24;;;;;;;13.85;1.70;;;12.90;99.90;;;;;;4905547;29;20083;-84
2022/09/21 08:06:06;;;;;;;4.97;0.85;;;12.90;99.90;;;;;;4871865;29;20060;-85
2022/09/21 08:21:02;;;;;;;5.97;0.80;;;13.40;99.90;;;;;;4836549;29;20163;-84
2022/09/21 12:47:44;;;;;;;3.70;0.73;;;19.50;96.90;;;;;;4960914;28;20556;-82
2022/09/21 12:51:11;;;;;;;3.08;0.50;;;19.60;95.40;;;;;;4938682;28;20178;-81
2022/09/21 12:58:28;;;;;;;1.98;0.40;;;19.30;97.10;;;;;;4953574;28;20062;-81
2022/09/21 13:21:25;;;;;;;4.22;0.57;;;20.50;95.20;;;;;;4893132;29;20059;-84
2022/09/21 13:24:55;;;;;;;6.35;0.52;;;20.70;95.30;;;;;;4891790;29;20050;-84
2022/09/21 13:57:47;;;;;;;4.22;0.70;;;20.40;94.10;;;;;;4839540;29;20063;-85
2022/09/21 14:01:38;;;;;;;4.85;0.55;;;20.30;94.10;;;;;;4851726;29;20102;-85
2022/09/21 14:36:00;;;;;;;4.95;0.43;;;18.60;96.40;;;;;;4808816;29;20079;-82
2022/09/21 14:39:04;;;;;;;2.53;0.30;;;18.10;97.00;;;;;;4768964;29;20106;-85
2022/09/21 14:41:38;;;;;;;5.38;1.10;;;18.00;97.00;;;;;;4828948;29;20069;-84
2022/09/21 14:56:04;;;;;;;2.65;0.40;;;18.10;96.50;;;;;;4867138;29;20554;-87
2022/09/21 14:59:14;;;;;;;4.45;0.50;;;18.10;96.50;;;;;;4868120;29;20067;-85
2022/09/21 15:01:40;;;;;;;5.00;0.57;;;18.00;97.20;;;;;;4946581;28;20332;-83
2022/09/21 15:04:15;;;;;;;1.77;0.40;;;17.90;97.80;;;;;;4942521;28;20552;-85
2022/09/21 15:10:54;;;;;;;2.25;0.35;;;17.90;97.70;;;;;;4949176;28;20421;-83
2022/09/21 15:13:37;;;;;;;2.60;0.77;;;17.80;97.30;;;;;;4939352;28;20133;-82
2022/09/21 15:16:25;;;;;;;3.38;0.70;;;17.80;97.90;;;;;;4940240;28;20049;-83
2022/09/21 15:19:19;;;;;;;3.47;0.50;;;17.70;98.40;;;;;;4942447;28;20134;-82
2022/09/21 15:21:55;;;;;;;4.78;0.55;;;17.60;97.90;;;;;;4935683;28;20047;-82
2022/09/21 15:24:25;;;;;;;3.33;0.30;;;17.40;98.50;;;;;;4939311;28;20516;-83
2022/09/21 15:27:00;;;;;;;2.45;0.35;;;17.30;99.50;;;;;;4938825;28;20118;-83
2022/09/21 15:29:30;;;;;;;4.70;0.60;;;17.10;99.90;;;;;;4943250;28;21389;-83
2022/09/21 15:31:56;;;;;;;5.82;0.20;;;16.90;99.90;;;;;;4949752;28;20133;-83
2022/09/21 15:34:22;;;;;;;5.25;0.88;;;16.90;99.90;;;;;;4955336;28;20066;-83
2022/09/21 15:36:50;;;;;;;2.78;0.40;;;16.80;99.90;;;;;;4944901;28;20050;-83
2022/09/21 15:39:28;;;;;;;2.55;0.32;;;16.70;99.90;;;;;;4941575;28;20583;-83
2022/09/21 15:42:39;;;;;;;5.28;0.43;;;16.70;99.90;;;;;;4940170;28;20042;-83
2022/09/21 15:45:17;;;;;;;1.85;0.22;;;16.70;99.90;;;;;;4905068;29;20039;-83
2022/09/21 15:47:44;;;;;;;5.60;0.73;;;16.70;99.90;;;;;;4934627;28;20051;-83
2022/09/21 15:50:18;;;;;;;3.95;0.35;;;16.90;99.20;;;;;;4961519;28;20054;-83
2022/09/21 15:52:48;;;;;;;2.15;0.30;;;16.80;98.50;;;;;;4959375;28;20217;-82
2022/09/21 15:55:22;;;;;;;4.60;0.47;;;16.80;99.50;;;;;;4962416;28;20081;-83
2022/09/21 15:57:51;;;;;;;2.67;0.38;;;16.80;99.90;;;;;;4939898;28;20073;-83
2022/09/21 16:00:21;;;;;;;2.17;0.75;;;16.70;99.90;;;;;;4939721;28;20689;-82
2022/09/21 16:17:17;;;;;;;4.53;0.40;;;16.20;99.90;;;;;;4962312;28;20051;-83
2022/09/21 16:20:30;;;;;;;1.58;0.30;;;16.10;99.90;;;;;;4948614;28;20113;-87
2022/09/21 16:23:30;;;;;;;2.90;0.30;;;16.00;99.90;;;;;;4930523;28;20042;-84
2022/09/21 16:26:30;;;;;;;1.88;0.40;;;15.90;99.90;;;;;;4948126;28;20528;-84
2022/09/21 16:29:22;;;;;;;4.20;0.40;;;15.70;99.90;;;;;;4933239;28;20130;-84
2022/09/21 16:31:50;;;;;;;2.10;0.30;;;15.60;99.90;;;;;;4942373;28;20106;-84
2022/09/21 16:34:39;;;;;;;3.65;0.75;;;15.50;99.90;;;;;;4933823;28;20161;-84
2022/09/21 16:37:30;;;;;;;2.28;0.68;;;15.40;99.90;;;;;;4932865;28;20450;-84
2022/09/21 16:40:18;;;;;;;2.22;0.40;;;15.20;99.90;;;;;;4964637;28;20076;-84
2022/09/21 16:43:35;;;;;;;;;;;;;;;;;;;;;
2022/09/21 16:50:08;;;;;;;4.28;0.45;;;14.70;99.90;;;;;;4938522;28;20088;-84
2022/09/21 16:52:36;;;;;;;4.53;0.35;;;14.50;99.90;;;;;;4937688;28;20044;-83
2022/09/21 16:55:23;;;;;;;3.40;0.52;;;14.70;99.90;;;;;;4944135;28;20050;-85
2022/09/21 16:57:48;;;;;;;4.18;0.50;;;14.30;99.90;;;;;;4934984;28;20047;-83
2022/09/21 17:00:19;;;;;;;5.55;0.85;;;14.20;99.90;;;;;;4941349;28;20046;-82
2022/09/21 17:02:45;;;;;;;2.97;0.30;;;14.20;99.90;;;;;;4941654;28;20050;-83
2022/09/21 17:05:16;;;;;;;3.38;0.90;;;14.00;99.90;;;;;;4959215;28;20512;-81
2022/09/21 17:07:52;;;;;;;3.15;0.50;;;14.00;99.90;;;;;;4940845;28;20130;-81
2022/09/21 17:10:31;;;;;;;;;;;13.80;99.90;;;;;;4950586;28;20039;-84
2022/09/21 17:16:39;;;;;;;2.53;0.30;;;13.70;99.90;;;;;;4964618;28;20097;-83
2022/09/21 17:26:27;;;;;;;1.73;0.28;;;13.40;99.90;;;;;;4963295;28;20831;-83
2022/09/21 17:28:53;;;;;;;4.03;0.47;;;13.20;99.90;;;;;;4951960;28;20043;-85
2022/09/21 17:31:23;;;;;;;4.90;0.35;;;13.20;99.90;;;;;;4933984;28;20047;-85
2022/09/21 17:33:50;;;;;;;2.67;0.50;;;13.40;99.90;;;;;;4966758;28;20034;-86
2022/09/21 17:36:18;;;;;;;3.80;0.65;;;13.00;99.90;;;;;;4948856;28;20047;-86
2022/09/21 17:38:52;;;;;;;4.22;0.40;;;12.90;99.90;;;;;;4951714;28;20047;-85
2022/09/21 18:18:26;;;;;;;1.77;0.50;;;11.90;99.90;;;;;;4855927;29;20064;-82
2022/09/21 18:21:01;;;;;;;1.15;0.40;;;11.80;99.90;;;;;;4902693;29;20071;-83
2022/09/21 18:23:41;;;;;;;3.15;0.60;;;11.80;99.90;;;;;;4934384;28;20061;-82
2022/09/21 18:26:17;;;;;;;4.38;0.65;;;11.70;99.90;;;;;;4960136;28;20386;-84
2022/09/21 18:28:57;;;;;;;1.38;0.30;;;11.60;99.90;;;;;;4963194;28;20081;-86
2022/09/21 18:32:05;;;;;;;4.07;0.68;;;11.60;99.90;;;;;;4966988;28;20058;-84
2022/09/21 18:35:09;;;;;;;1.65;0.30;;;11.60;99.90;;;;;;4935186;28;20042;-86
2022/09/21 18:42:19;;;;;;;2.58;0.40;;;11.40;99.90;;;;;;4968513;28;20038;-86
2022/09/21 18:45:10;;;;;;;2.10;0.32;;;11.40;99.90;;;;;;4887800;29;20571;-81
2022/09/21 18:48:32;;;;;;;2.95;0.68;;;11.40;99.90;;;;;;4887349;29;20196;-82
2022/09/21 18:51:16;;;;;;;2.63;0.30;;;11.30;99.90;;;;;;4949463;28;20045;-83
2022/09/21 18:53:47;;;;;;;0.95;0.22;;;11.20;99.90;;;;;;4946035;28;20039;-83
2022/09/21 18:56:14;;;;;;;4.57;0.85;;;11.20;99.90;;;;;;4946246;28;20062;-83
2022/09/21 18:58:41;;;;;;;3.60;0.38;;;11.10;99.90;;;;;;4930336;28;20102;-82
2022/09/21 19:01:11;;;;;;;4.68;0.30;;;11.10;99.90;;;;;;4946020;28;20978;-83
2022/09/21 19:03:37;;;;;;;3.10;0.40;;;11.00;99.90;;;;;;4945145;28;20121;-82
2022/09/21 19:06:08;;;;;;;3.55;0.52;;;10.90;99.90;;;;;;4941628;28;20122;-82
2022/09/21 19:08:48;;;;;;;1.30;0.43;;;10.90;99.90;;;;;;4942343;28;20091;-82
2022/09/21 19:11:23;;;;;;;1.98;0.40;;;10.90;99.90;;;;;;4949125;28;20377;-81
2022/09/21 19:13:59;;;;;;;;;;;10.80;99.90;;;;;;4963849;28;20124;-84
2022/09/21 19:16:59;;;;;;;3.97;0.68;;;10.80;99.90;;;;;;4941576;28;19922;-82
2022/09/21 19:19:38;;;;;;;3.30;0.57;;;10.70;99.90;;;;;;4942275;28;20046;-82
2022/09/21 19:22:30;;;;;;;2.95;0.40;;;10.70;99.90;;;;;;4943829;28;20105;-83
2022/09/21 19:25:13;;;;;;;2.47;0.93;;;10.60;99.90;;;;;;4947243;28;20490;-83
2022/09/21 19:27:45;;;;;;;3.17;0.60;;;10.50;99.90;;;;;;4948178;28;21506;-82
2022/09/21 19:30:58;;;;;;;4.40;0.70;;;10.50;99.90;;;;;;4965783;28;20501;-84
2022/09/21 19:34:20;;;;;;;3.35;0.40;;;10.50;99.90;;;;;;4959742;28;20045;-84
2022/09/21 19:36:46;;;;;;;1.10;0.32;;;10.40;99.90;;;;;;4943428;28;20097;-83
2022/09/21 19:39:12;;;;;;;3.78;0.80;;;10.40;99.90;;;;;;4943975;28;20055;-82
2022/09/21 19:41:54;;;;;;;1.63;0.45;;;10.30;99.90;;;;;;4926825;28;20138;-83
2022/09/21 19:44:40;;;;;;;5.55;0.70;;;10.40;99.90;;;;;;4942432;28;20051;-82
2022/09/21 19:47:35;;;;;;;3.25;0.70;;;10.30;99.90;;;;;;4928461;28;20553;-82
2022/09/21 19:51:11;;;;;;;1.95;0.60;;;10.30;99.90;;;;;;4933604;28;20043;-84
2022/09/21 19:59:56;;;;;;;2.00;0.85;;;10.10;99.90;;;;;;4941226;28;20181;-83
2022/09/21 20:02:28;;;;;;;5.72;0.82;;;10.00;99.90;;;;;;4940243;28;20484;-83
2022/09/21 20:05:11;;;;;;;2.67;1.02;;;10.10;99.90;;;;;;4957831;28;20141;-83
2022/09/21 20:07:54;;;;;;;4.72;0.80;;;10.00;99.90;;;;;;4929860;28;20045;-82
2022/09/21 20:10:21;;;;;;;2.95;0.60;;;9.90;99.90;;;;;;4941917;28;20047;-82
2022/09/21 20:12:59;;;;;;;3.15;0.63;;;9.90;99.90;;;;;;4941884;28;20054;-82
2022/09/21 20:15:48;;;;;;;2.45;0.43;;;9.90;99.90;;;;;;4942349;28;20043;-82
2022/09/21 20:18:33;;;;;;;5.75;1.00;;;9.70;99.90;;;;;;4941242;28;20089;-82
2022/09/21 20:20:59;;;;;;;1.38;0.50;;;9.70;99.90;;;;;;4956606;28;20426;-82
2022/09/21 20:23:25;;;;;;;2.65;0.40;;;9.60;99.90;;;;;;4940490;28;20035;-82
2022/09/21 20:26:02;;;;;;;4.85;0.60;;;9.60;99.90;;;;;;4943222;28;20581;-82
2022/09/21 20:28:28;;;;;;;8.75;0.60;;;9.60;99.90;;;;;;4941455;28;20046;-83
2022/09/21 20:30:53;;;;;;;5.28;0.90;;;9.50;99.90;;;;;;4941478;28;20540;-82
2022/09/21 20:33:22;;;;;;;4.53;0.57;;;9.50;99.90;;;;;;4944213;28;20859;-82
2022/09/21 20:35:49;;;;;;;6.65;0.98;;;9.50;99.90;;;;;;4944352;28;20728;-82
2022/09/21 20:38:15;;;;;;;4.78;0.60;;;9.50;99.90;;;;;;4939802;28;20049;-83
2022/09/21 20:40:41;;;;;;;3.60;0.60;;;9.50;99.90;;;;;;4936989;28;20075;-82
2022/09/21 20:43:11;;;;;;;3.40;0.55;;;9.50;99.90;;;;;;4937421;28;20070;-82
2022/09/21 20:45:39;;;;;;;4.28;0.73;;;9.50;99.90;;;;;;4941543;28;20035;-82
2022/09/21 20:48:14;;;;;;;4.72;0.52;;;9.40;99.90;;;;;;4943040;28;20046;-83
2022/09/21 20:50:45;;;;;;;6.07;0.50;;;9.40;99.90;;;;;;4939943;28;20043;-82
2022/09/21 20:53:11;;;;;;;3.50;0.77;;;9.40;99.90;;;;;;4954939;28;20051;-82
2022/09/21 20:55:38;;;;;;;1.85;0.40;;;9.30;99.90;;;;;;4943150;28;20098;-81
2022/09/21 20:58:04;;;;;;;1.70;0.30;;;9.30;99.90;;;;;;4940964;28;20054;-81
2022/09/21 21:00:30;;;;;;;2.88;0.68;;;9.30;99.90;;;;;;4940543;28;20047;-82
2022/09/21 21:03:00;;;;;;;3.90;0.77;;;9.30;99.90;;;;;;4939745;28;20042;-82
2022/09/21 21:05:27;;;;;;;1.20;0.35;;;9.20;99.90;;;;;;4936866;28;20042;-82
2022/09/21 21:07:54;;;;;;;1.13;0.20;;;9.20;99.90;;;;;;4940764;28;20046;-83
2022/09/21 21:10:20;;;;;;;1.17;0.10;;;9.20;99.90;;;;;;4937176;28;20053;-81
2022/09/21 21:12:46;;;;;;;2.83;0.30;;;9.10;99.90;;;;;;4942494;28;20085;-82
2022/09/21 21:15:12;;;;;;;1.85;0.22;;;9.00;99.90;;;;;;4939509;28;20070;-82
2022/09/21 21:18:04;;;;;;;3.72;0.47;;;9.00;99.90;;;;;;4953512;28;20097;-82
2022/09/21 21:20:49;;;;;;;1.60;0.40;;;9.00;99.90;;;;;;4945368;28;20069;-82
2022/09/21 21:23:15;;;;;;;3.80;0.30;;;9.00;99.90;;;;;;4939292;28;20043;-82
2022/09/21 21:25:40;;;;;;;1.75;0.30;;;9.00;99.90;;;;;;4938926;28;20043;-82
2022/09/21 21:28:06;;;;;;;1.38;0.20;;;8.90;99.90;;;;;;4937964;28;20042;-83
2022/09/21 21:30:31;;;;;;;1.73;0.40;;;9.00;99.90;;;;;;4938189;28;20490;-82
2022/09/21 21:32:57;;;;;;;3.67;0.38;;;8.90;99.90;;;;;;4922234;28;20047;-82
2022/09/21 21:35:23;;;;;;;1.85;0.50;;;8.80;99.90;;;;;;4935198;28;20035;-82
2022/09/21 21:37:48;;;;;;;2.17;0.40;;;8.80;99.90;;;;;;4923871;28;20212;-83
2022/09/21 21:40:14;;;;;;;3.13;0.60;;;8.70;99.90;;;;;;4957972;28;20074;-82
2022/09/21 21:42:39;;;;;;;4.05;0.70;;;8.70;99.90;;;;;;4956809;28;20046;-82
2022/09/21 21:45:06;;;;;;;1.20;0.57;;;8.70;99.90;;;;;;4936654;28;20043;-82
2022/09/21 21:47:32;;;;;;;6.20;0.70;;;8.60;99.90;;;;;;4922387;28;20088;-82
2022/09/21 21:49:58;;;;;;;5.68;0.60;;;8.60;99.90;;;;;;4939396;28;20194;-82
2022/09/21 21:52:24;;;;;;;5.07;0.82;;;8.70;99.90;;;;;;4957793;28;20050;-82
2022/09/21 21:54:49;;;;;;;1.98;0.70;;;8.60;99.90;;;;;;4940199;28;20035;-82
2022/09/21 21:57:15;;;;;;;3.35;0.90;;;8.60;99.90;;;;;;4940564;28;20039;-83
2022/09/21 21:59:42;;;;;;;5.65;1.13;;;8.60;99.90;;;;;;4956768;28;20121;-83
2022/09/21 22:02:08;;;;;;;1.48;0.65;;;8.60;99.90;;;;;;4935679;28;20054;-83
2022/09/21 22:04:34;;;;;;;1.85;0.75;;;8.60;99.90;;;;;;4935668;28;20053;-82
2022/09/21 22:07:00;;;;;;;2.17;0.73;;;8.50;99.90;;;;;;4939884;28;20039;-83
2022/09/21 22:09:26;;;;;;;1.05;0.40;;;8.60;99.90;;;;;;4942163;28;20050;-82
2022/09/21 22:11:51;;;;;;;2.70;0.43;;;8.50;99.90;;;;;;4938783;28;20053;-82
2022/09/21 22:14:17;;;;;;;1.23;0.50;;;8.40;99.90;;;;;;4934553;28;20424;-82
2022/09/21 22:16:42;;;;;;;3.38;1.40;;;8.40;99.90;;;;;;4935590;28;20126;-82
2022/09/21 22:19:08;;;;;;;4.05;1.60;;;8.30;99.90;;;;;;4941657;28;20039;-82
2022/09/21 22:21:44;;;;;;;3.50;1.50;;;8.20;99.90;;;;;;4941790;28;20039;-82
2022/09/21 22:24:10;;;;;;;2.95;1.40;;;8.30;99.90;;;;;;4960898;28;20057;-82
2022/09/21 22:26:39;;;;;;;3.63;1.80;;;8.20;99.90;;;;;;4924316;28;20142;-82
2022/09/21 22:29:06;;;;;;;10.02;2.55;;;8.20;99.90;;;;;;4935702;28;20062;-82
2022/09/21 22:31:35;;;;;;;3.22;1.80;;;8.20;99.90;;;;;;4939816;28;20047;-82
2022/09/21 22:34:00;;;;;;;3.65;1.92;;;8.30;99.90;;;;;;4953513;28;20039;-81
2022/09/21 22:36:31;;;;;;;4.85;2.15;;;8.20;99.90;;;;;;4938431;28;20102;-82
2022/09/21 22:39:20;;;;;;;3.65;1.88;;;8.20;99.90;;;;;;4937608;28;20134;-82
2022/09/21 22:41:45;;;;;;;9.27;1.48;;;8.60;99.90;;;;;;4931219;28;20043;-82
2022/09/21 22:44:11;;;;;;;1.90;1.15;;;8.20;99.90;;;;;;4940612;28;20127;-82
2022/09/21 22:46:37;;;;;;;4.72;1.23;;;8.20;99.90;;;;;;4938406;28;20083;-82
2022/09/21 22:49:03;;;;;;;6.18;2.47;;;8.10;99.90;;;;;;4939581;28;20129;-82
2022/09/21 22:51:29;;;;;;;4.55;3.08;;;8.10;99.90;;;;;;4939693;28;20045;-82
2022/09/21 22:53:56;;;;;;;4.90;3.50;;;8.10;99.90;;;;;;4939668;28;20057;-82
2022/09/21 22:56:27;;;;;;;3.47;2.65;;;8.00;99.90;;;;;;4941347;28;20046;-83
2022/09/21 22:58:55;;;;;;;4.57;2.78;;;8.00;99.90;;;;;;4958004;28;20039;-82
2022/09/21 23:01:29;;;;;;;5.80;3.15;;;8.00;99.90;;;;;;4942982;28;20051;-82
2022/09/21 23:04:00;;;;;;;6.80;3.28;;;8.00;99.90;;;;;;4942604;28;20113;-82
2022/09/21 23:06:32;;;;;;;4.72;2.85;;;8.00;99.90;;;;;;4957869;28;20059;-82
2022/09/21 23:08:59;;;;;;;3.30;2.20;;;8.00;99.90;;;;;;4941422;28;20066;-82
2022/09/21 23:11:29;;;;;;;3.38;2.40;;;8.00;99.90;;;;;;4932831;28;20066;-81
2022/09/21 23:13:55;;;;;;;11.68;3.05;;;8.00;99.90;;;;;;4942708;28;20045;-82
2022/09/21 23:16:26;;;;;;;3.65;2.97;;;8.00;99.90;;;;;;4943241;28;20047;-82
2022/09/21 23:18:52;;;;;;;4.38;2.30;;;7.90;99.90;;;;;;4959759;28;20101;-82
2022/09/21 23:21:21;;;;;;;3.03;1.42;;;7.90;99.90;;;;;;4940087;28;20043;-83
2022/09/21 23:23:47;;;;;;;15.65;1.30;;;7.90;99.90;;;;;;4940051;28;20652;-82
2022/09/21 23:26:14;;;;;;;2.08;1.45;;;7.80;99.90;;;;;;4942039;28;20043;-82
2022/09/21 23:28:41;;;;;;;2.75;1.40;;;7.70;99.90;;;;;;4943388;28;20054;-82
2022/09/21 23:31:09;;;;;;;1.60;0.88;;;7.70;99.90;;;;;;4940456;28;20229;-82
2022/09/21 23:33:43;;;;;;;1.17;1.08;;;7.60;99.90;;;;;;4949677;28;20531;-82
2022/09/21 23:36:11;;;;;;;1.52;0.90;;;7.70;99.90;;;;;;4938377;28;20051;-83
2022/09/21 23:38:37;;;;;;;2.80;0.80;;;7.70;99.90;;;;;;4940010;28;20046;-82
2022/09/21 23:41:04;;;;;;;1.45;1.23;;;7.60;99.90;;;;;;4940031;28;20070;-83
2022/09/21 23:43:30;;;;;;;3.45;1.30;;;7.60;99.90;;;;;;4944680;28;20049;-82
2022/09/21 23:45:56;;;;;;;1.83;1.35;;;7.60;99.90;;;;;;4942024;28;20028;-82
2022/09/21 23:48:22;;;;;;;4.32;1.90;;;7.70;99.90;;;;;;4955948;28;20058;-82
2022/09/21 23:50:47;;;;;;;1.73;1.00;;;7.70;99.90;;;;;;4940519;28;20405;-82
2022/09/21 23:53:13;;;;;;;2.78;1.13;;;7.70;99.90;;;;;;4943722;28;20551;-83
2022/09/21 23:55:38;;;;;;;2.28;1.35;;;7.60;99.90;;;;;;4931150;28;20133;-82
2022/09/21 23:58:04;;;;;;;4.90;1.98;;;7.60;99.90;;;;;;4940706;28;20050;-82
